Terminal Aerodrome Forecast
Issued by NWS Wilmington, OH

Home | Current Version | Previous Version | Text Only | Print | Product List | Glossary On
Versions: 1 2 3 4 5 6 7 8 9 10 11 12 13 14 15 16 17 18 19 20 21 22 23 24
000
FTUS41 KILN 011449 AAA
TAFDAY
TAF AMD
KDAY 011449Z 0115/0212 22006KT P6SM BKN022
      TEMPO 0115/0116 BKN008
     FM011800 27005KT P6SM VCSH SCT025 BKN040
      TEMPO 0118/0121 -SHRA
     FM012200 VRB03KT P6SM SCT050 BKN080
     FM020100 VRB03KT P6SM VCSH BKN040
     FM021000 33005KT P6SM BKN025=

USA.gov is the U.S. government's official web portal to all federal, state and local government web resources and services.